Startpagina
METAR-TAF:

METAR-TAF

Vliegvelden :

Saint-Nazaire, Frankrijk

breedte: 47-19N, lengte: 002-10W, hoogte: 3 m

Actueel weer

Dit bericht is 23 minuten geleden gemaakt, om 20:30 UTC
Wind 7 kt uit het oostnoordoosten
Temperatuur 4°C
Vochtigheid 100%
Druk 1020 hPa
Zicht: 1300 m
Geheel bewolkt op 200 ft
nevel

METAR: LFRZ 242030Z AUTO 07007KT 1600 1300 R25/P2000 BR OVC002 04/04 Q1020 TEMPO 0400 FG VV///

Tijdstip: 21:53 (20:53 UTC)

Verwachting

Dit bericht is 1 uur en het 34 minuten geleden gemaakt, om 19:19 UTC
Verwachting geldig van 24 om 19 UTC tot 25 om 18 UTC
Wind 6 kt uit het noordoosten
Zicht: 4000 m
Geheel bewolkt op 600 ft
nevel
Tijdelijke
van 24 om 19 UTC tot 25 om 12 UTC
Zicht: 0400 m
mist

TAF: LFRZ 241919Z 2419/2518 05006KT 4000 BR OVC006 TEMPO 2419/2512 0400 FG VV///

Waarnemingen en weersverwachtingen van meer dan 4000 vliegvelden (METAR en TAF).

De beschikbare stations zijn de gele en rode punten op de kaart.

Ga met uw muis naar het station om de naam te zien.

Klik dan om waarnemingen en weersverwachtingen te zien.

kaart wijzigen: klik op de groene knoppen met een zwart kruis om in te zoomen, op de groene knop met een streepje om uit te zoomen of op de groene pijlen voor aangrenzende kaarten.


METAR-TAF: